sensor_id;sensor_type;location;lat;lon;timestamp;temperature;humidity
40253;DHT22;25972;51.854;4.534;2023-07-09T00:01:13;24.50;99.90
40253;DHT22;25972;51.854;4.534;2023-07-09T00:03:39;24.50;99.90
40253;DHT22;25972;51.854;4.534;2023-07-09T00:06:08;24.40;99.90
40253;DHT22;25972;51.854;4.534;2023-07-09T00:08:34;24.40;99.90
40253;DHT22;25972;51.854;4.534;2023-07-09T00:11:00;24.40;99.90
40253;DHT22;25972;51.854;4.534;2023-07-09T00:13:27;24.30;99.90
40253;DHT22;25972;51.854;4.534;2023-07-09T00:15:56;24.30;99.90
40253;DHT22;25972;51.854;4.534;2023-07-09T00:18:23;24.30;99.90
40253;DHT22;25972;51.854;4.534;2023-07-09T00:20:49;24.20;99.90
40253;DHT22;25972;51.854;4.534;2023-07-09T00:23:15;24.20;99.90
40253;DHT22;25972;51.854;4.534;2023-07-09T00:25:45;24.10;99.90
40253;DHT22;25972;51.854;4.534;2023-07-09T00:28:13;24.10;99.90
40253;DHT22;25972;51.854;4.534;2023-07-09T00:30:45;24.00;99.90
40253;DHT22;25972;51.854;4.534;2023-07-09T00:33:13;24.00;99.90
40253;DHT22;25972;51.854;4.534;2023-07-09T00:35:40;24.00;99.90
40253;DHT22;25972;51.854;4.534;2023-07-09T00:38:13;24.00;99.90
40253;DHT22;25972;51.854;4.534;2023-07-09T00:40:46;24.00;99.90
40253;DHT22;25972;51.854;4.534;2023-07-09T00:43:15;23.90;99.90
40253;DHT22;25972;51.854;4.534;2023-07-09T00:45:44;23.90;99.90
40253;DHT22;25972;51.854;4.534;2023-07-09T00:48:14;23.80;99.90
40253;DHT22;25972;51.854;4.534;2023-07-09T00:50:45;23.80;99.90
40253;DHT22;25972;51.854;4.534;2023-07-09T00:53:16;23.80;99.90
40253;DHT22;25972;51.854;4.534;2023-07-09T00:55:51;23.80;99.90
40253;DHT22;25972;51.854;4.534;2023-07-09T00:58:19;23.80;99.90
40253;DHT22;25972;51.854;4.534;2023-07-09T01:00:50;23.70;99.90
40253;DHT22;25972;51.854;4.534;2023-07-09T01:03:32;23.70;99.90
40253;DHT22;25972;51.854;4.534;2023-07-09T01:06:00;23.70;99.90
40253;DHT22;25972;51.854;4.534;2023-07-09T01:08:29;23.60;99.90
40253;DHT22;25972;51.854;4.534;2023-07-09T01:10:58;23.60;99.90
40253;DHT22;25972;51.854;4.534;2023-07-09T01:13:28;23.60;99.90
40253;DHT22;25972;51.854;4.534;2023-07-09T01:15:57;23.50;99.90
40253;DHT22;25972;51.854;4.534;2023-07-09T01:18:24;23.50;99.90
40253;DHT22;25972;51.854;4.534;2023-07-09T01:20:51;23.50;99.90
40253;DHT22;25972;51.854;4.534;2023-07-09T01:23:20;23.50;99.90
40253;DHT22;25972;51.854;4.534;2023-07-09T01:25:49;23.50;99.90
40253;DHT22;25972;51.854;4.534;2023-07-09T01:28:19;23.40;99.90
40253;DHT22;25972;51.854;4.534;2023-07-09T01:30:46;23.40;99.90
40253;DHT22;25972;51.854;4.534;2023-07-09T01:33:15;23.40;99.90
40253;DHT22;25972;51.854;4.534;2023-07-09T01:35:40;23.40;99.90
40253;DHT22;25972;51.854;4.534;2023-07-09T01:38:08;23.30;99.90
40253;DHT22;25972;51.854;4.534;2023-07-09T01:40:36;23.30;99.90
40253;DHT22;25972;51.854;4.534;2023-07-09T01:43:03;23.20;99.90
40253;DHT22;25972;51.854;4.534;2023-07-09T01:45:33;23.20;99.90
40253;DHT22;25972;51.854;4.534;2023-07-09T01:48:00;23.20;99.90
40253;DHT22;25972;51.854;4.534;2023-07-09T01:50:27;23.20;99.90
40253;DHT22;25972;51.854;4.534;2023-07-09T01:52:53;23.10;99.90
40253;DHT22;25972;51.854;4.534;2023-07-09T01:55:20;23.10;99.90
40253;DHT22;25972;51.854;4.534;2023-07-09T01:57:47;23.10;99.90
40253;DHT22;25972;51.854;4.534;2023-07-09T02:00:16;23.10;99.90
40253;DHT22;25972;51.854;4.534;2023-07-09T02:02:44;23.00;99.90
40253;DHT22;25972;51.854;4.534;2023-07-09T02:05:15;23.00;99.90
40253;DHT22;25972;51.854;4.534;2023-07-09T02:07:42;23.00;99.90
40253;DHT22;25972;51.854;4.534;2023-07-09T02:10:09;23.00;99.90
40253;DHT22;25972;51.854;4.534;2023-07-09T02:12:35;23.00;99.90
40253;DHT22;25972;51.854;4.534;2023-07-09T02:15:04;23.00;99.90
40253;DHT22;25972;51.854;4.534;2023-07-09T02:17:30;23.00;99.90
40253;DHT22;25972;51.854;4.534;2023-07-09T02:19:56;22.90;99.90
40253;DHT22;25972;51.854;4.534;2023-07-09T02:22:22;22.90;99.90
40253;DHT22;25972;51.854;4.534;2023-07-09T02:24:48;22.90;99.90
40253;DHT22;25972;51.854;4.534;2023-07-09T02:27:16;22.90;99.90
40253;DHT22;25972;51.854;4.534;2023-07-09T02:29:43;22.80;99.90
40253;DHT22;25972;51.854;4.534;2023-07-09T02:32:14;22.90;99.90
40253;DHT22;25972;51.854;4.534;2023-07-09T02:34:42;22.80;99.90
40253;DHT22;25972;51.854;4.534;2023-07-09T02:37:08;22.80;99.90
40253;DHT22;25972;51.854;4.534;2023-07-09T02:39:34;22.80;99.90
40253;DHT22;25972;51.854;4.534;2023-07-09T02:42:01;22.80;99.90
40253;DHT22;25972;51.854;4.534;2023-07-09T02:44:27;22.70;99.90
40253;DHT22;25972;51.854;4.534;2023-07-09T02:46:53;22.70;99.90
40253;DHT22;25972;51.854;4.534;2023-07-09T02:49:22;22.70;99.90
40253;DHT22;25972;51.854;4.534;2023-07-09T02:51:48;22.70;99.90
40253;DHT22;25972;51.854;4.534;2023-07-09T02:54:14;22.70;99.90
40253;DHT22;25972;51.854;4.534;2023-07-09T02:56:40;22.70;99.90
40253;DHT22;25972;51.854;4.534;2023-07-09T02:59:06;22.70;99.90
40253;DHT22;25972;51.854;4.534;2023-07-09T03:01:32;22.70;99.90
40253;DHT22;25972;51.854;4.534;2023-07-09T03:04:00;22.60;99.90
40253;DHT22;25972;51.854;4.534;2023-07-09T03:06:29;22.60;99.90
40253;DHT22;25972;51.854;4.534;2023-07-09T03:08:58;22.60;99.90
40253;DHT22;25972;51.854;4.534;2023-07-09T03:11:27;22.60;99.90
40253;DHT22;25972;51.854;4.534;2023-07-09T03:13:53;22.60;99.90
40253;DHT22;25972;51.854;4.534;2023-07-09T03:16:19;22.60;99.90
40253;DHT22;25972;51.854;4.534;2023-07-09T03:18:46;22.60;99.90
40253;DHT22;25972;51.854;4.534;2023-07-09T03:21:12;22.60;99.90
40253;DHT22;25972;51.854;4.534;2023-07-09T03:23:39;22.60;99.90
40253;DHT22;25972;51.854;4.534;2023-07-09T03:26:05;22.70;99.90
40253;DHT22;25972;51.854;4.534;2023-07-09T03:28:32;22.60;99.90
40253;DHT22;25972;51.854;4.534;2023-07-09T03:30:58;22.60;99.90
40253;DHT22;25972;51.854;4.534;2023-07-09T03:33:24;22.60;99.90
40253;DHT22;25972;51.854;4.534;2023-07-09T03:35:50;22.60;99.90
40253;DHT22;25972;51.854;4.534;2023-07-09T03:38:16;22.60;99.90
40253;DHT22;25972;51.854;4.534;2023-07-09T03:40:44;22.60;99.90
40253;DHT22;25972;51.854;4.534;2023-07-09T03:43:10;22.70;99.90
40253;DHT22;25972;51.854;4.534;2023-07-09T03:45:37;22.70;99.90
40253;DHT22;25972;51.854;4.534;2023-07-09T03:48:04;22.70;99.90
40253;DHT22;25972;51.854;4.534;2023-07-09T03:50:30;22.70;99.90
40253;DHT22;25972;51.854;4.534;2023-07-09T03:52:56;22.70;99.90
40253;DHT22;25972;51.854;4.534;2023-07-09T03:55:23;22.70;99.90
40253;DHT22;25972;51.854;4.534;2023-07-09T03:57:53;22.70;99.90
40253;DHT22;25972;51.854;4.534;2023-07-09T04:00:20;22.70;99.90
40253;DHT22;25972;51.854;4.534;2023-07-09T04:02:47;22.70;99.90
40253;DHT22;25972;51.854;4.534;2023-07-09T04:05:14;22.80;99.90
40253;DHT22;25972;51.854;4.534;2023-07-09T04:07:40;22.80;99.90
40253;DHT22;25972;51.854;4.534;2023-07-09T04:10:07;22.80;99.90
40253;DHT22;25972;51.854;4.534;2023-07-09T04:12:33;22.80;99.90
40253;DHT22;25972;51.854;4.534;2023-07-09T04:15:00;22.80;99.90
40253;DHT22;25972;51.854;4.534;2023-07-09T04:17:26;22.80;99.90
40253;DHT22;25972;51.854;4.534;2023-07-09T04:19:52;22.80;99.90
40253;DHT22;25972;51.854;4.534;2023-07-09T04:22:18;22.90;99.90
40253;DHT22;25972;51.854;4.534;2023-07-09T04:24:44;22.90;99.90
40253;DHT22;25972;51.854;4.534;2023-07-09T04:27:11;22.90;99.90
40253;DHT22;25972;51.854;4.534;2023-07-09T04:29:40;22.90;99.90
40253;DHT22;25972;51.854;4.534;2023-07-09T04:32:11;23.00;99.90
40253;DHT22;25972;51.854;4.534;2023-07-09T04:34:37;23.00;99.90
40253;DHT22;25972;51.854;4.534;2023-07-09T04:37:05;23.10;99.90
40253;DHT22;25972;51.854;4.534;2023-07-09T04:39:31;23.20;99.90
40253;DHT22;25972;51.854;4.534;2023-07-09T04:41:57;23.20;99.90
40253;DHT22;25972;51.854;4.534;2023-07-09T04:44:23;23.30;99.90
40253;DHT22;25972;51.854;4.534;2023-07-09T04:46:50;23.30;99.90
40253;DHT22;25972;51.854;4.534;2023-07-09T04:49:18;23.40;99.90
40253;DHT22;25972;51.854;4.534;2023-07-09T04:51:44;23.50;99.90
40253;DHT22;25972;51.854;4.534;2023-07-09T04:54:10;23.60;99.90
40253;DHT22;25972;51.854;4.534;2023-07-09T04:56:36;23.70;99.90
40253;DHT22;25972;51.854;4.534;2023-07-09T04:59:03;23.80;99.90
40253;DHT22;25972;51.854;4.534;2023-07-09T05:01:29;23.90;99.90
40253;DHT22;25972;51.854;4.534;2023-07-09T05:03:55;24.20;99.90
40253;DHT22;25972;51.854;4.534;2023-07-09T05:06:23;24.70;99.90
40253;DHT22;25972;51.854;4.534;2023-07-09T05:08:49;25.30;99.90
40253;DHT22;25972;51.854;4.534;2023-07-09T05:11:15;25.80;99.90
40253;DHT22;25972;51.854;4.534;2023-07-09T05:13:41;26.30;99.90
40253;DHT22;25972;51.854;4.534;2023-07-09T05:16:07;26.70;99.90
40253;DHT22;25972;51.854;4.534;2023-07-09T05:18:33;27.20;99.90
40253;DHT22;25972;51.854;4.534;2023-07-09T05:20:59;27.40;99.90
40253;DHT22;25972;51.854;4.534;2023-07-09T05:23:26;27.60;99.90
40253;DHT22;25972;51.854;4.534;2023-07-09T05:25:56;27.60;99.90
40253;DHT22;25972;51.854;4.534;2023-07-09T05:28:22;27.70;99.90
40253;DHT22;25972;51.854;4.534;2023-07-09T05:30:48;27.80;99.90
40253;DHT22;25972;51.854;4.534;2023-07-09T05:33:14;27.90;99.90
40253;DHT22;25972;51.854;4.534;2023-07-09T05:35:42;28.10;99.90
40253;DHT22;25972;51.854;4.534;2023-07-09T05:38:08;28.20;97.10
40253;DHT22;25972;51.854;4.534;2023-07-09T05:40:35;28.30;79.40
40253;DHT22;25972;51.854;4.534;2023-07-09T05:43:01;28.40;54.90
40253;DHT22;25972;51.854;4.534;2023-07-09T05:45:28;28.40;25.90
40253;DHT22;25972;51.854;4.534;2023-07-09T05:47:54;28.50;8.90
40253;DHT22;25972;51.854;4.534;2023-07-09T05:50:19;28.60;1.70
40253;DHT22;25972;51.854;4.534;2023-07-09T05:52:45;28.80;1.00
40253;DHT22;25972;51.854;4.534;2023-07-09T05:55:11;28.80;1.00
40253;DHT22;25972;51.854;4.534;2023-07-09T05:57:39;28.70;1.00
40253;DHT22;25972;51.854;4.534;2023-07-09T06:00:06;28.60;1.00
40253;DHT22;25972;51.854;4.534;2023-07-09T06:02:42;28.70;1.00
40253;DHT22;25972;51.854;4.534;2023-07-09T06:05:09;28.70;1.00
40253;DHT22;25972;51.854;4.534;2023-07-09T06:07:36;28.50;1.00
40253;DHT22;25972;51.854;4.534;2023-07-09T06:10:03;28.50;1.00
40253;DHT22;25972;51.854;4.534;2023-07-09T06:12:29;28.60;1.00
40253;DHT22;25972;51.854;4.534;2023-07-09T06:14:56;28.90;1.00
40253;DHT22;25972;51.854;4.534;2023-07-09T06:17:22;29.40;1.00
40253;DHT22;25972;51.854;4.534;2023-07-09T06:19:48;29.50;1.00
40253;DHT22;25972;51.854;4.534;2023-07-09T06:22:14;29.60;1.00
40253;DHT22;25972;51.854;4.534;2023-07-09T06:24:40;29.60;1.00
40253;DHT22;25972;51.854;4.534;2023-07-09T06:27:08;29.50;1.00
40253;DHT22;25972;51.854;4.534;2023-07-09T06:29:35;29.50;1.00
40253;DHT22;25972;51.854;4.534;2023-07-09T06:32:02;29.60;1.00
40253;DHT22;25972;51.854;4.534;2023-07-09T06:34:28;29.70;1.00
40253;DHT22;25972;51.854;4.534;2023-07-09T06:36:56;29.80;1.00
40253;DHT22;25972;51.854;4.534;2023-07-09T06:39:23;30.00;1.00
40253;DHT22;25972;51.854;4.534;2023-07-09T06:41:49;29.90;1.00
40253;DHT22;25972;51.854;4.534;2023-07-09T06:44:46;29.90;1.00
40253;DHT22;25972;51.854;4.534;2023-07-09T06:47:14;29.80;1.00
40253;DHT22;25972;51.854;4.534;2023-07-09T06:49:40;29.80;1.00
40253;DHT22;25972;51.854;4.534;2023-07-09T06:52:06;29.90;1.00
40253;DHT22;25972;51.854;4.534;2023-07-09T06:54:33;30.20;1.00
40253;DHT22;25972;51.854;4.534;2023-07-09T06:56:58;30.40;1.00
40253;DHT22;25972;51.854;4.534;2023-07-09T06:59:25;30.50;1.00
40253;DHT22;25972;51.854;4.534;2023-07-09T07:01:51;30.50;1.00
40253;DHT22;25972;51.854;4.534;2023-07-09T07:04:18;30.30;1.00
40253;DHT22;25972;51.854;4.534;2023-07-09T07:06:44;30.20;1.00
40253;DHT22;25972;51.854;4.534;2023-07-09T07:09:10;30.30;1.00
40253;DHT22;25972;51.854;4.534;2023-07-09T07:11:36;30.30;1.00
40253;DHT22;25972;51.854;4.534;2023-07-09T07:14:02;30.00;1.00
40253;DHT22;25972;51.854;4.534;2023-07-09T07:16:28;29.80;1.00
40253;DHT22;25972;51.854;4.534;2023-07-09T07:18:54;29.80;1.00
40253;DHT22;25972;51.854;4.534;2023-07-09T07:21:21;29.70;1.00
40253;DHT22;25972;51.854;4.534;2023-07-09T07:23:47;29.90;1.00
40253;DHT22;25972;51.854;4.534;2023-07-09T07:26:13;29.90;1.00
40253;DHT22;25972;51.854;4.534;2023-07-09T07:28:39;29.90;1.00
40253;DHT22;25972;51.854;4.534;2023-07-09T07:31:08;29.70;1.00
40253;DHT22;25972;51.854;4.534;2023-07-09T07:33:34;29.60;1.00
40253;DHT22;25972;51.854;4.534;2023-07-09T07:36:00;29.50;1.00
40253;DHT22;25972;51.854;4.534;2023-07-09T07:38:30;29.60;1.00
40253;DHT22;25972;51.854;4.534;2023-07-09T07:40:56;29.60;1.00
40253;DHT22;25972;51.854;4.534;2023-07-09T07:43:22;29.60;1.00
40253;DHT22;25972;51.854;4.534;2023-07-09T07:45:48;29.70;1.00
40253;DHT22;25972;51.854;4.534;2023-07-09T07:48:14;30.00;1.00
40253;DHT22;25972;51.854;4.534;2023-07-09T07:50:40;30.20;1.00
40253;DHT22;25972;51.854;4.534;2023-07-09T07:53:07;30.30;1.00
40253;DHT22;25972;51.854;4.534;2023-07-09T07:55:36;30.40;1.00
40253;DHT22;25972;51.854;4.534;2023-07-09T07:58:02;30.50;1.00
40253;DHT22;25972;51.854;4.534;2023-07-09T08:00:30;30.50;1.00
40253;DHT22;25972;51.854;4.534;2023-07-09T08:02:56;30.40;1.00
40253;DHT22;25972;51.854;4.534;2023-07-09T08:05:22;30.20;1.00
40253;DHT22;25972;51.854;4.534;2023-07-09T08:07:49;30.40;1.00
40253;DHT22;25972;51.854;4.534;2023-07-09T08:10:15;30.30;1.00
40253;DHT22;25972;51.854;4.534;2023-07-09T08:12:43;30.50;1.00
40253;DHT22;25972;51.854;4.534;2023-07-09T08:15:09;30.70;1.00
40253;DHT22;25972;51.854;4.534;2023-07-09T08:17:35;30.90;1.00
40253;DHT22;25972;51.854;4.534;2023-07-09T08:20:01;30.70;1.00
40253;DHT22;25972;51.854;4.534;2023-07-09T08:22:27;30.60;1.00
40253;DHT22;25972;51.854;4.534;2023-07-09T08:24:53;30.30;1.00
40253;DHT22;25972;51.854;4.534;2023-07-09T08:27:19;30.30;1.00
40253;DHT22;25972;51.854;4.534;2023-07-09T08:29:47;30.20;1.00
40253;DHT22;25972;51.854;4.534;2023-07-09T08:32:13;30.10;1.00
40253;DHT22;25972;51.854;4.534;2023-07-09T08:34:40;30.10;1.00
40253;DHT22;25972;51.854;4.534;2023-07-09T08:37:07;30.20;1.00
40253;DHT22;25972;51.854;4.534;2023-07-09T08:39:34;30.20;1.00
40253;DHT22;25972;51.854;4.534;2023-07-09T08:42:03;30.40;1.00
40253;DHT22;25972;51.854;4.534;2023-07-09T08:44:59;30.90;1.00
40253;DHT22;25972;51.854;4.534;2023-07-09T08:47:31;31.20;1.00
40253;DHT22;25972;51.854;4.534;2023-07-09T08:50:02;31.50;1.00
40253;DHT22;25972;51.854;4.534;2023-07-09T08:52:34;31.50;1.00
40253;DHT22;25972;51.854;4.534;2023-07-09T08:55:05;31.50;1.00
40253;DHT22;25972;51.854;4.534;2023-07-09T08:57:34;31.60;1.00
40253;DHT22;25972;51.854;4.534;2023-07-09T09:00:12;31.70;1.00
40253;DHT22;25972;51.854;4.534;2023-07-09T09:02:44;31.80;1.00
40253;DHT22;25972;51.854;4.534;2023-07-09T09:05:14;31.80;1.00
40253;DHT22;25972;51.854;4.534;2023-07-09T09:07:43;31.70;1.00
40253;DHT22;25972;51.854;4.534;2023-07-09T09:10:13;31.90;1.00
40253;DHT22;25972;51.854;4.534;2023-07-09T09:12:46;32.20;1.00
40253;DHT22;25972;51.854;4.534;2023-07-09T09:15:18;32.40;1.00
40253;DHT22;25972;51.854;4.534;2023-07-09T09:17:51;32.40;1.00
40253;DHT22;25972;51.854;4.534;2023-07-09T09:20:20;32.60;1.00
40253;DHT22;25972;51.854;4.534;2023-07-09T09:22:50;32.70;1.00
40253;DHT22;25972;51.854;4.534;2023-07-09T09:25:23;33.00;1.00
40253;DHT22;25972;51.854;4.534;2023-07-09T09:27:50;33.10;1.00
40253;DHT22;25972;51.854;4.534;2023-07-09T09:30:19;33.00;1.00
40253;DHT22;25972;51.854;4.534;2023-07-09T09:32:49;33.00;1.00
40253;DHT22;25972;51.854;4.534;2023-07-09T09:35:18;32.70;1.00
40253;DHT22;25972;51.854;4.534;2023-07-09T09:37:51;32.50;1.00
40253;DHT22;25972;51.854;4.534;2023-07-09T09:40:17;32.40;1.00
40253;DHT22;25972;51.854;4.534;2023-07-09T09:42:47;32.20;1.00
40253;DHT22;25972;51.854;4.534;2023-07-09T09:45:17;32.20;1.00
40253;DHT22;25972;51.854;4.534;2023-07-09T09:47:43;32.00;1.00
40253;DHT22;25972;51.854;4.534;2023-07-09T09:50:13;31.90;1.00
40253;DHT22;25972;51.854;4.534;2023-07-09T09:52:39;32.10;1.00
40253;DHT22;25972;51.854;4.534;2023-07-09T09:55:11;32.30;1.00
40253;DHT22;25972;51.854;4.534;2023-07-09T09:57:38;32.60;1.00
40253;DHT22;25972;51.854;4.534;2023-07-09T10:00:05;32.90;1.00
40253;DHT22;25972;51.854;4.534;2023-07-09T10:02:39;33.10;1.00
40253;DHT22;25972;51.854;4.534;2023-07-09T10:05:13;33.30;1.00
40253;DHT22;25972;51.854;4.534;2023-07-09T10:07:47;33.30;1.00
40253;DHT22;25972;51.854;4.534;2023-07-09T10:10:20;33.40;1.00
40253;DHT22;25972;51.854;4.534;2023-07-09T10:12:51;33.60;1.00
40253;DHT22;25972;51.854;4.534;2023-07-09T10:15:26;33.50;1.00
40253;DHT22;25972;51.854;4.534;2023-07-09T10:18:00;33.50;1.00
40253;DHT22;25972;51.854;4.534;2023-07-09T10:20:32;33.70;1.00
40253;DHT22;25972;51.854;4.534;2023-07-09T10:23:03;33.30;1.00
40253;DHT22;25972;51.854;4.534;2023-07-09T10:25:38;33.10;1.00
40253;DHT22;25972;51.854;4.534;2023-07-09T10:28:20;32.80;1.00
40253;DHT22;25972;51.854;4.534;2023-07-09T10:30:53;32.80;1.00
40253;DHT22;25972;51.854;4.534;2023-07-09T10:33:27;32.80;1.00
40253;DHT22;25972;51.854;4.534;2023-07-09T10:36:02;33.10;1.00
40253;DHT22;25972;51.854;4.534;2023-07-09T10:38:39;33.40;1.00
40253;DHT22;25972;51.854;4.534;2023-07-09T10:41:12;33.70;1.00
40253;DHT22;25972;51.854;4.534;2023-07-09T10:43:43;33.90;1.00
40253;DHT22;25972;51.854;4.534;2023-07-09T10:46:10;33.90;1.00
40253;DHT22;25972;51.854;4.534;2023-07-09T10:48:42;33.70;1.00
40253;DHT22;25972;51.854;4.534;2023-07-09T10:51:17;33.70;1.00
40253;DHT22;25972;51.854;4.534;2023-07-09T10:53:47;33.80;1.00
40253;DHT22;25972;51.854;4.534;2023-07-09T10:56:19;34.00;1.00
40253;DHT22;25972;51.854;4.534;2023-07-09T10:58:47;34.30;1.00
40253;DHT22;25972;51.854;4.534;2023-07-09T11:01:15;34.30;1.00
40253;DHT22;25972;51.854;4.534;2023-07-09T11:03:49;34.30;1.00
40253;DHT22;25972;51.854;4.534;2023-07-09T11:06:20;34.50;1.00
40253;DHT22;25972;51.854;4.534;2023-07-09T11:08:47;34.30;1.00
40253;DHT22;25972;51.854;4.534;2023-07-09T11:11:23;34.30;1.00
40253;DHT22;25972;51.854;4.534;2023-07-09T11:13:53;34.30;1.00
40253;DHT22;25972;51.854;4.534;2023-07-09T11:16:29;34.30;1.00
40253;DHT22;25972;51.854;4.534;2023-07-09T11:18:59;34.10;1.00
40253;DHT22;25972;51.854;4.534;2023-07-09T11:21:26;33.90;1.00
40253;DHT22;25972;51.854;4.534;2023-07-09T11:23:53;33.80;1.00
40253;DHT22;25972;51.854;4.534;2023-07-09T11:26:25;33.90;1.00
40253;DHT22;25972;51.854;4.534;2023-07-09T11:28:54;33.70;1.00
40253;DHT22;25972;51.854;4.534;2023-07-09T11:31:25;33.60;1.00
40253;DHT22;25972;51.854;4.534;2023-07-09T11:34:02;33.70;1.00
40253;DHT22;25972;51.854;4.534;2023-07-09T11:36:33;33.70;1.00
40253;DHT22;25972;51.854;4.534;2023-07-09T11:39:02;33.70;1.00
40253;DHT22;25972;51.854;4.534;2023-07-09T11:41:37;33.50;1.00
40253;DHT22;25972;51.854;4.534;2023-07-09T11:44:12;33.40;1.00
40253;DHT22;25972;51.854;4.534;2023-07-09T11:49:38;33.30;1.00
40253;DHT22;25972;51.854;4.534;2023-07-09T11:52:08;33.40;1.00
40253;DHT22;25972;51.854;4.534;2023-07-09T11:54:36;33.30;1.00
40253;DHT22;25972;51.854;4.534;2023-07-09T11:57:04;33.30;1.00
40253;DHT22;25972;51.854;4.534;2023-07-09T11:59:38;33.30;1.00
40253;DHT22;25972;51.854;4.534;2023-07-09T12:02:04;33.30;1.00
40253;DHT22;25972;51.854;4.534;2023-07-09T12:04:35;33.10;1.00
40253;DHT22;25972;51.854;4.534;2023-07-09T12:07:01;32.90;1.00
40253;DHT22;25972;51.854;4.534;2023-07-09T12:09:32;32.50;1.00
40253;DHT22;25972;51.854;4.534;2023-07-09T12:11:58;32.20;1.00
40253;DHT22;25972;51.854;4.534;2023-07-09T12:14:24;31.70;1.00
40253;DHT22;25972;51.854;4.534;2023-07-09T12:16:51;31.70;1.00
40253;DHT22;25972;51.854;4.534;2023-07-09T12:19:20;31.60;1.00
40253;DHT22;25972;51.854;4.534;2023-07-09T12:21:49;31.20;1.00
40253;DHT22;25972;51.854;4.534;2023-07-09T12:24:19;31.20;1.00
40253;DHT22;25972;51.854;4.534;2023-07-09T12:26:48;31.10;1.00
40253;DHT22;25972;51.854;4.534;2023-07-09T12:29:15;31.10;1.00
40253;DHT22;25972;51.854;4.534;2023-07-09T12:31:41;30.90;1.00
40253;DHT22;25972;51.854;4.534;2023-07-09T12:34:12;30.70;1.00
40253;DHT22;25972;51.854;4.534;2023-07-09T12:36:41;30.20;1.00
40253;DHT22;25972;51.854;4.534;2023-07-09T12:39:11;29.80;1.00
40253;DHT22;25972;51.854;4.534;2023-07-09T12:41:40;29.70;1.00
40253;DHT22;25972;51.854;4.534;2023-07-09T12:44:15;29.60;1.00
40253;DHT22;25972;51.854;4.534;2023-07-09T12:46:42;29.70;1.00
40253;DHT22;25972;51.854;4.534;2023-07-09T12:49:20;29.70;1.00
40253;DHT22;25972;51.854;4.534;2023-07-09T12:51:47;29.70;1.00
40253;DHT22;25972;51.854;4.534;2023-07-09T12:54:16;29.30;1.00
40253;DHT22;25972;51.854;4.534;2023-07-09T12:56:42;29.10;1.00
40253;DHT22;25972;51.854;4.534;2023-07-09T12:59:16;28.80;1.00
40253;DHT22;25972;51.854;4.534;2023-07-09T13:01:48;28.60;1.00
40253;DHT22;25972;51.854;4.534;2023-07-09T13:04:14;28.60;1.00
40253;DHT22;25972;51.854;4.534;2023-07-09T13:06:42;28.70;1.00
40253;DHT22;25972;51.854;4.534;2023-07-09T13:09:18;28.80;1.00
40253;DHT22;25972;51.854;4.534;2023-07-09T13:11:45;28.80;1.00
40253;DHT22;25972;51.854;4.534;2023-07-09T13:14:18;28.80;1.00
40253;DHT22;25972;51.854;4.534;2023-07-09T13:16:44;28.90;1.00
40253;DHT22;25972;51.854;4.534;2023-07-09T13:19:10;28.90;1.00
40253;DHT22;25972;51.854;4.534;2023-07-09T13:21:38;28.90;1.00
40253;DHT22;25972;51.854;4.534;2023-07-09T13:24:13;28.80;1.00
40253;DHT22;25972;51.854;4.534;2023-07-09T13:26:41;28.80;1.00
40253;DHT22;25972;51.854;4.534;2023-07-09T13:29:13;28.60;1.00
40253;DHT22;25972;51.854;4.534;2023-07-09T13:31:39;28.40;1.00
40253;DHT22;25972;51.854;4.534;2023-07-09T13:34:18;28.40;1.00
40253;DHT22;25972;51.854;4.534;2023-07-09T13:36:44;28.30;1.00
40253;DHT22;25972;51.854;4.534;2023-07-09T13:39:10;28.00;1.00
40253;DHT22;25972;51.854;4.534;2023-07-09T13:41:39;27.70;1.00
40253;DHT22;25972;51.854;4.534;2023-07-09T13:44:11;27.50;1.00
40253;DHT22;25972;51.854;4.534;2023-07-09T13:46:38;27.40;1.00
40253;DHT22;25972;51.854;4.534;2023-07-09T13:49:07;27.20;1.00
40253;DHT22;25972;51.854;4.534;2023-07-09T13:51:33;27.00;1.00
40253;DHT22;25972;51.854;4.534;2023-07-09T13:54:00;26.90;1.00
40253;DHT22;25972;51.854;4.534;2023-07-09T13:56:28;26.60;1.00
40253;DHT22;25972;51.854;4.534;2023-07-09T13:58:54;26.50;1.00
40253;DHT22;25972;51.854;4.534;2023-07-09T14:01:23;26.40;1.00
40253;DHT22;25972;51.854;4.534;2023-07-09T14:03:49;26.30;1.00
40253;DHT22;25972;51.854;4.534;2023-07-09T14:06:18;26.00;1.00
40253;DHT22;25972;51.854;4.534;2023-07-09T14:08:44;25.80;1.00
40253;DHT22;25972;51.854;4.534;2023-07-09T14:11:11;25.60;1.00
40253;DHT22;25972;51.854;4.534;2023-07-09T14:13:38;25.30;1.00
40253;DHT22;25972;51.854;4.534;2023-07-09T14:16:05;24.90;21.90
40253;DHT22;25972;51.854;4.534;2023-07-09T14:18:33;24.20;99.90
40253;DHT22;25972;51.854;4.534;2023-07-09T14:20:59;23.30;99.90
40253;DHT22;25972;51.854;4.534;2023-07-09T14:23:25;22.80;99.90
40253;DHT22;25972;51.854;4.534;2023-07-09T14:25:51;22.60;99.90
40253;DHT22;25972;51.854;4.534;2023-07-09T14:28:18;22.60;99.90
40253;DHT22;25972;51.854;4.534;2023-07-09T14:30:45;22.60;99.90
40253;DHT22;25972;51.854;4.534;2023-07-09T14:33:15;22.60;99.90
40253;DHT22;25972;51.854;4.534;2023-07-09T14:35:43;22.70;99.90
40253;DHT22;25972;51.854;4.534;2023-07-09T14:38:18;22.80;99.90
40253;DHT22;25972;51.854;4.534;2023-07-09T14:40:45;22.80;99.90
40253;DHT22;25972;51.854;4.534;2023-07-09T14:43:12;23.00;99.90
40253;DHT22;25972;51.854;4.534;2023-07-09T14:45:38;23.00;99.90
40253;DHT22;25972;51.854;4.534;2023-07-09T14:48:09;23.20;99.90
40253;DHT22;25972;51.854;4.534;2023-07-09T14:50:35;23.20;99.90
40253;DHT22;25972;51.854;4.534;2023-07-09T14:53:02;23.30;99.90
40253;DHT22;25972;51.854;4.534;2023-07-09T14:55:28;23.20;99.90
40253;DHT22;25972;51.854;4.534;2023-07-09T14:57:55;23.40;99.90
40253;DHT22;25972;51.854;4.534;2023-07-09T15:00:25;23.40;99.90
40253;DHT22;25972;51.854;4.534;2023-07-09T15:02:52;23.40;99.90
40253;DHT22;25972;51.854;4.534;2023-07-09T15:05:21;23.40;99.90
40253;DHT22;25972;51.854;4.534;2023-07-09T15:07:48;23.30;99.90
40253;DHT22;25972;51.854;4.534;2023-07-09T15:10:26;23.30;99.90
40253;DHT22;25972;51.854;4.534;2023-07-09T15:12:55;23.40;99.90
40253;DHT22;25972;51.854;4.534;2023-07-09T15:15:24;23.50;99.90
40253;DHT22;25972;51.854;4.534;2023-07-09T15:17:51;23.50;99.90
40253;DHT22;25972;51.854;4.534;2023-07-09T15:20:19;23.60;99.90
40253;DHT22;25972;51.854;4.534;2023-07-09T15:22:46;23.70;99.90
40253;DHT22;25972;51.854;4.534;2023-07-09T15:25:14;23.80;99.90
40253;DHT22;25972;51.854;4.534;2023-07-09T15:27:42;24.00;99.90
40253;DHT22;25972;51.854;4.534;2023-07-09T15:30:13;24.10;99.90
40253;DHT22;25972;51.854;4.534;2023-07-09T15:32:39;24.20;99.90
40253;DHT22;25972;51.854;4.534;2023-07-09T15:35:06;24.30;99.90
40253;DHT22;25972;51.854;4.534;2023-07-09T15:37:32;24.40;99.90
40253;DHT22;25972;51.854;4.534;2023-07-09T15:39:58;24.50;99.90
40253;DHT22;25972;51.854;4.534;2023-07-09T15:42:24;24.50;99.90
40253;DHT22;25972;51.854;4.534;2023-07-09T15:44:56;24.50;99.90
40253;DHT22;25972;51.854;4.534;2023-07-09T15:47:25;24.50;99.90
40253;DHT22;25972;51.854;4.534;2023-07-09T15:49:51;24.40;99.90